createdAt,value
2023-07-18T00:01:37.056Z,1.00
2023-07-18T00:04:04.158Z,1.38
2023-07-18T00:06:30.930Z,1.15
2023-07-18T00:08:57.478Z,1.15
2023-07-18T00:11:24.768Z,1.13
2023-07-18T00:13:51.422Z,1.20
2023-07-18T00:16:18.092Z,1.05
2023-07-18T00:18:44.755Z,1.23
2023-07-18T00:21:13.498Z,1.10
2023-07-18T00:23:40.142Z,2.00
2023-07-18T00:26:06.684Z,1.35
2023-07-18T00:28:34.036Z,1.20
2023-07-18T00:31:00.747Z,1.30
2023-07-18T00:33:27.283Z,1.25
2023-07-18T00:35:53.848Z,1.02
2023-07-18T00:38:21.636Z,1.58
2023-07-18T00:40:50.186Z,1.20
2023-07-18T00:43:16.994Z,1.45
2023-07-18T00:45:45.580Z,1.50
2023-07-18T00:48:12.404Z,1.35
2023-07-18T00:50:39.586Z,1.27
2023-07-18T00:53:06.563Z,1.23
2023-07-18T00:55:33.637Z,1.33
2023-07-18T00:58:02.905Z,1.20
2023-07-18T01:00:29.665Z,1.23
2023-07-18T01:02:56.229Z,1.05
2023-07-18T01:05:23.450Z,1.20
2023-07-18T01:07:50.083Z,1.58
2023-07-18T01:10:24.744Z,1.38
2023-07-18T01:15:22.610Z,1.50
2023-07-18T01:17:50.412Z,1.40
2023-07-18T01:20:22.698Z,1.40
2023-07-18T01:22:55.037Z,1.23
2023-07-18T01:25:22.343Z,1.45
2023-07-18T01:27:51.762Z,1.50
2023-07-18T01:30:20.621Z,1.15
2023-07-18T01:35:20.935Z,1.40
2023-07-18T01:37:48.534Z,1.02
2023-07-18T01:40:21.140Z,1.42
2023-07-18T01:42:52.757Z,1.23
2023-07-18T01:45:20.569Z,1.85
2023-07-18T01:47:47.824Z,1.52
2023-07-18T01:50:14.821Z,1.20
2023-07-18T01:52:41.509Z,1.60
2023-07-18T01:55:08.606Z,1.30
2023-07-18T01:57:41.586Z,1.30
2023-07-18T02:00:13.541Z,1.55
2023-07-18T02:02:40.494Z,1.45
2023-07-18T02:05:07.442Z,1.42
2023-07-18T02:07:34.068Z,1.48
2023-07-18T02:10:01.956Z,1.77
2023-07-18T02:12:29.034Z,1.52
2023-07-18T02:14:55.652Z,1.42
2023-07-18T02:17:22.348Z,1.40
2023-07-18T02:19:48.903Z,1.50
2023-07-18T02:22:15.930Z,2.13
2023-07-18T02:24:42.547Z,1.85
2023-07-18T02:27:09.178Z,1.63
2023-07-18T02:29:35.713Z,1.42
2023-07-18T02:32:02.575Z,1.58
2023-07-18T02:34:29.162Z,1.48
2023-07-18T02:36:55.746Z,1.42
2023-07-18T02:39:22.477Z,1.52
2023-07-18T02:41:49.120Z,1.67
2023-07-18T02:44:15.626Z,1.35
2023-07-18T02:46:42.271Z,1.45
2023-07-18T02:49:08.822Z,1.52
2023-07-18T02:51:35.339Z,1.73
2023-07-18T02:54:01.919Z,1.60
2023-07-18T02:56:28.398Z,1.67
2023-07-18T02:58:54.952Z,1.75
2023-07-18T03:01:21.675Z,1.48
2023-07-18T03:03:48.554Z,1.55
2023-07-18T03:06:16.701Z,1.67
2023-07-18T03:08:43.360Z,1.35
2023-07-18T03:11:10.196Z,1.38
2023-07-18T03:13:37.634Z,1.45
2023-07-18T03:16:06.029Z,1.33
2023-07-18T03:18:32.983Z,1.35
2023-07-18T03:20:59.737Z,2.20
2023-07-18T03:23:27.258Z,1.60
2023-07-18T03:25:53.790Z,2.22
2023-07-18T03:28:21.056Z,1.52
2023-07-18T03:30:48.219Z,2.00
2023-07-18T03:33:16.528Z,1.45
2023-07-18T03:35:43.267Z,1.65
2023-07-18T03:38:09.851Z,1.52
2023-07-18T03:40:36.385Z,1.50
2023-07-18T03:43:03.336Z,1.65
2023-07-18T03:45:30.268Z,1.50
2023-07-18T03:47:56.991Z,1.50
2023-07-18T03:50:24.873Z,2.05
2023-07-18T03:52:51.448Z,1.92
2023-07-18T03:55:18.391Z,1.77
2023-07-18T03:57:45.702Z,2.20
2023-07-18T04:00:18.152Z,1.60
2023-07-18T04:02:47.756Z,1.60
2023-07-18T04:05:15.651Z,1.52
2023-07-18T04:07:42.839Z,2.33
2023-07-18T04:10:10.999Z,1.77
2023-07-18T04:12:37.705Z,1.63
2023-07-18T04:15:04.541Z,1.52
2023-07-18T04:17:31.641Z,1.63
2023-07-18T04:20:00.495Z,1.88
2023-07-18T04:24:55.387Z,1.40
2023-07-18T04:27:22.397Z,1.35
2023-07-18T04:29:49.783Z,2.22
2023-07-18T04:32:18.936Z,1.65
2023-07-18T04:34:45.660Z,1.35
2023-07-18T04:37:12.174Z,1.75
2023-07-18T04:39:38.688Z,1.92
2023-07-18T04:42:05.563Z,1.95
2023-07-18T04:44:32.378Z,1.55
2023-07-18T04:46:59.038Z,1.77
2023-07-18T04:49:26.287Z,1.58
2023-07-18T04:51:53.372Z,2.10
2023-07-18T04:54:20.061Z,1.73
2023-07-18T04:56:46.754Z,2.13
2023-07-18T04:59:13.285Z,1.83
2023-07-18T05:01:41.473Z,1.80
2023-07-18T05:04:08.030Z,1.88
2023-07-18T05:06:34.562Z,1.98
2023-07-18T05:09:01.141Z,1.73
2023-07-18T05:11:27.803Z,1.80
2023-07-18T05:13:54.733Z,2.35
2023-07-18T05:16:21.338Z,2.05
2023-07-18T05:18:47.923Z,1.73
2023-07-18T05:21:15.241Z,1.70
2023-07-18T05:23:41.752Z,2.10
2023-07-18T05:26:09.441Z,1.92
2023-07-18T05:28:35.955Z,1.70
2023-07-18T05:31:10.570Z,1.70
2023-07-18T05:33:37.191Z,2.33
2023-07-18T05:36:04.013Z,1.90
2023-07-18T05:38:30.616Z,1.85
2023-07-18T05:40:57.375Z,1.88
2023-07-18T05:43:23.907Z,2.03
2023-07-18T05:45:50.617Z,1.80
2023-07-18T05:48:17.173Z,1.77
2023-07-18T05:50:43.759Z,1.42
2023-07-18T05:53:10.333Z,1.63
2023-07-18T05:55:37.042Z,1.88
2023-07-18T05:58:03.561Z,2.17
2023-07-18T06:00:30.086Z,1.88
2023-07-18T06:02:58.904Z,2.40
2023-07-18T06:05:26.660Z,1.80
2023-07-18T06:07:53.485Z,2.05
2023-07-18T06:10:20.232Z,1.70
2023-07-18T06:12:46.755Z,2.00
2023-07-18T06:15:13.357Z,1.88
2023-07-18T06:17:40.670Z,2.00
2023-07-18T06:20:13.344Z,1.88
2023-07-18T06:22:40.462Z,2.30
2023-07-18T06:25:07.791Z,2.03
2023-07-18T06:27:34.409Z,2.65
2023-07-18T06:30:01.149Z,1.80
2023-07-18T06:32:30.079Z,1.60
2023-07-18T06:35:00.686Z,1.90
2023-07-18T06:37:32.898Z,1.83
2023-07-18T06:39:59.413Z,2.83
2023-07-18T06:42:25.958Z,2.03
2023-07-18T06:44:52.774Z,2.38
2023-07-18T06:47:19.553Z,1.88
2023-07-18T06:49:46.079Z,2.15
2023-07-18T06:52:12.599Z,2.22
2023-07-18T06:54:39.110Z,2.05
2023-07-18T06:57:06.035Z,2.50
2023-07-18T06:59:32.619Z,1.80
2023-07-18T07:01:59.276Z,1.88
2023-07-18T07:04:25.858Z,1.90
2023-07-18T07:06:52.356Z,1.85
2023-07-18T07:09:18.848Z,1.70
2023-07-18T07:11:45.424Z,1.77
2023-07-18T07:14:15.316Z,1.88
2023-07-18T07:16:42.132Z,1.55
2023-07-18T07:19:09.105Z,1.63
2023-07-18T07:21:35.686Z,1.75
2023-07-18T07:24:03.710Z,1.92
2023-07-18T07:26:30.471Z,2.30
2023-07-18T07:28:57.083Z,1.92
2023-07-18T07:31:24.379Z,2.03
2023-07-18T07:33:51.526Z,1.92
2023-07-18T07:36:18.079Z,2.60
2023-07-18T07:38:44.601Z,2.25
2023-07-18T07:41:11.230Z,1.95
2023-07-18T07:43:37.925Z,1.75
2023-07-18T07:46:05.345Z,2.10
2023-07-18T07:48:32.205Z,2.08
2023-07-18T07:50:59.853Z,2.10
2023-07-18T07:53:26.744Z,2.00
2023-07-18T07:55:53.422Z,1.92
2023-07-18T07:58:19.942Z,1.50
2023-07-18T08:00:47.298Z,1.67
2023-07-18T08:03:14.030Z,1.60
2023-07-18T08:05:40.549Z,1.40
2023-07-18T08:08:07.232Z,1.42
2023-07-18T08:10:33.928Z,1.50
2023-07-18T08:13:00.621Z,1.55
2023-07-18T08:15:28.228Z,1.10
2023-07-18T08:17:58.405Z,1.42
2023-07-18T08:20:25.032Z,1.45
2023-07-18T08:22:51.657Z,1.35
2023-07-18T08:25:19.041Z,1.10
2023-07-18T08:27:46.262Z,1.05
2023-07-18T08:30:13.124Z,1.10
2023-07-18T08:32:41.633Z,1.20
2023-07-18T08:35:08.642Z,1.15
2023-07-18T08:37:35.367Z,1.27
2023-07-18T08:40:02.285Z,1.10
2023-07-18T08:42:29.416Z,1.10
2023-07-18T08:44:56.966Z,0.80
2023-07-18T08:47:24.860Z,0.77
2023-07-18T08:49:52.343Z,0.90
2023-07-18T08:52:18.974Z,1.13
2023-07-18T08:54:45.970Z,1.00
2023-07-18T08:57:13.846Z,1.20
2023-07-18T08:59:40.985Z,1.10
2023-07-18T09:02:07.655Z,1.08
2023-07-18T09:04:34.412Z,1.00
2023-07-18T09:07:02.280Z,1.13
2023-07-18T09:09:29.081Z,1.38
2023-07-18T09:12:05.604Z,1.20
2023-07-18T09:14:34.197Z,1.10
2023-07-18T09:17:05.026Z,0.98
2023-07-18T09:19:39.894Z,1.27
2023-07-18T09:22:08.517Z,1.00
2023-07-18T09:24:38.494Z,1.00
2023-07-18T09:27:23.377Z,0.88
2023-07-18T09:29:50.553Z,0.90
2023-07-18T09:32:20.835Z,1.05
2023-07-18T09:34:54.810Z,0.80
2023-07-18T09:37:21.604Z,1.27
2023-07-18T09:39:49.771Z,0.98
2023-07-18T09:42:20.354Z,0.85
2023-07-18T09:44:53.619Z,0.90
2023-07-18T09:47:21.736Z,1.00
2023-07-18T09:49:48.762Z,1.02
2023-07-18T09:52:17.212Z,1.13
2023-07-18T09:54:45.199Z,1.33
2023-07-18T09:57:13.801Z,1.20
2023-07-18T09:59:41.392Z,1.15
2023-07-18T10:02:11.300Z,1.13
2023-07-18T10:04:39.493Z,0.88
2023-07-18T10:07:09.891Z,1.00
2023-07-18T10:09:37.555Z,1.63
2023-07-18T10:12:04.235Z,1.10
2023-07-18T10:14:47.821Z,0.93
2023-07-18T10:17:29.098Z,0.90
2023-07-18T10:19:55.862Z,0.85
2023-07-18T10:22:30.021Z,0.90
2023-07-18T10:25:02.036Z,0.80
2023-07-18T10:27:39.568Z,0.60
2023-07-18T10:30:16.872Z,0.90
2023-07-18T10:32:57.454Z,0.65
2023-07-18T10:37:56.915Z,0.93
2023-07-18T10:40:32.909Z,1.00
2023-07-18T10:42:59.769Z,1.00
2023-07-18T10:45:27.976Z,1.00
2023-07-18T10:47:54.645Z,0.80
2023-07-18T10:50:21.204Z,0.55
2023-07-18T10:52:48.990Z,0.60
2023-07-18T10:55:17.868Z,1.10
2023-07-18T10:57:44.501Z,0.70
2023-07-18T11:00:11.826Z,0.70
2023-07-18T11:02:43.203Z,0.70
2023-07-18T11:05:14.841Z,0.88
2023-07-18T11:07:44.105Z,1.00
2023-07-18T11:10:11.744Z,1.10
2023-07-18T11:12:39.281Z,1.27
2023-07-18T11:15:07.275Z,2.25
2023-07-18T11:17:34.818Z,1.17
2023-07-18T11:20:01.733Z,1.00
2023-07-18T11:22:29.548Z,1.10
2023-07-18T11:24:57.285Z,0.90
2023-07-18T11:27:25.280Z,0.80
2023-07-18T11:30:02.396Z,0.73
2023-07-18T11:32:41.069Z,0.80
2023-07-18T11:35:10.427Z,1.00
2023-07-18T11:37:42.397Z,1.38
2023-07-18T11:40:10.746Z,0.90
2023-07-18T11:42:48.895Z,0.88
2023-07-18T11:45:24.012Z,1.30
2023-07-18T11:47:55.775Z,0.90
2023-07-18T11:50:28.393Z,0.90
2023-07-18T11:52:58.906Z,0.73
2023-07-18T11:55:25.554Z,0.90
2023-07-18T11:57:52.190Z,0.85
2023-07-18T12:00:19.295Z,1.40
2023-07-18T12:02:46.874Z,1.13
2023-07-18T12:05:17.963Z,1.13
2023-07-18T12:07:46.131Z,1.00
2023-07-18T12:10:15.536Z,1.38
2023-07-18T12:12:42.099Z,0.80
2023-07-18T12:15:10.210Z,1.10
2023-07-18T12:17:39.626Z,0.98
2023-07-18T12:20:07.802Z,0.80
2023-07-18T12:22:34.613Z,1.30
2023-07-18T12:25:03.426Z,0.82
2023-07-18T12:27:30.462Z,0.90
2023-07-18T12:29:57.165Z,1.05
2023-07-18T12:32:27.315Z,1.10
2023-07-18T12:34:55.852Z,0.85
2023-07-18T12:37:22.479Z,0.70
2023-07-18T12:39:49.052Z,0.80
2023-07-18T12:42:15.675Z,0.75
2023-07-18T12:44:45.838Z,0.90
2023-07-18T12:47:12.937Z,0.80
2023-07-18T12:52:09.744Z,0.88
2023-07-18T12:54:36.383Z,0.90
2023-07-18T12:57:03.287Z,0.80
2023-07-18T12:59:30.034Z,0.70
2023-07-18T13:01:57.638Z,0.80
2023-07-18T13:04:25.202Z,0.90
2023-07-18T13:06:52.119Z,0.77
2023-07-18T13:09:18.815Z,1.58
2023-07-18T13:11:46.220Z,0.75
2023-07-18T13:14:18.346Z,0.80
2023-07-18T13:16:45.074Z,0.80
2023-07-18T13:19:11.617Z,0.85
2023-07-18T13:21:38.445Z,0.90
2023-07-18T13:24:05.560Z,0.95
2023-07-18T13:26:32.192Z,1.20
2023-07-18T13:28:58.914Z,0.80
2023-07-18T13:31:25.556Z,0.82
2023-07-18T13:33:52.249Z,0.80
2023-07-18T13:36:19.087Z,0.80
2023-07-18T13:38:45.941Z,0.85
2023-07-18T13:41:12.583Z,0.70
2023-07-18T13:43:40.399Z,0.70
2023-07-18T13:46:07.685Z,0.70
2023-07-18T13:48:34.792Z,0.88
2023-07-18T13:51:01.863Z,1.15
2023-07-18T13:53:28.524Z,0.88
2023-07-18T13:55:56.133Z,0.52
2023-07-18T13:58:23.357Z,1.00
2023-07-18T14:00:50.234Z,0.50
2023-07-18T14:03:33.373Z,0.73
2023-07-18T14:06:01.685Z,0.50
2023-07-18T14:08:30.586Z,0.60
2023-07-18T14:10:57.387Z,0.57
2023-07-18T14:13:23.941Z,0.68
2023-07-18T14:15:50.557Z,0.80
2023-07-18T14:18:17.201Z,0.73
2023-07-18T14:20:44.887Z,0.40
2023-07-18T14:23:11.578Z,0.98
2023-07-18T14:25:38.349Z,0.57
2023-07-18T14:28:04.968Z,0.40
2023-07-18T14:30:31.713Z,0.52
2023-07-18T14:32:58.249Z,0.70
2023-07-18T14:35:25.215Z,1.17
2023-07-18T14:37:52.015Z,0.60
2023-07-18T14:40:18.729Z,1.02
2023-07-18T14:42:45.913Z,0.50
2023-07-18T14:45:12.712Z,0.52
2023-07-18T14:47:39.468Z,0.68
2023-07-18T14:50:06.561Z,0.70
2023-07-18T14:52:33.143Z,0.60
2023-07-18T14:55:00.568Z,0.40
2023-07-18T14:57:27.475Z,0.60
2023-07-18T14:59:54.640Z,0.63
2023-07-18T15:02:22.025Z,0.65
2023-07-18T15:04:48.716Z,0.63
2023-07-18T15:07:15.317Z,0.70
2023-07-18T15:09:41.953Z,0.90
2023-07-18T15:12:08.967Z,0.60
2023-07-18T15:14:35.544Z,0.52
2023-07-18T15:17:02.204Z,0.80
2023-07-18T15:19:28.753Z,0.70
2023-07-18T15:21:55.419Z,0.65
2023-07-18T15:24:21.955Z,0.52
2023-07-18T15:26:48.628Z,0.50
2023-07-18T15:29:15.634Z,0.95
2023-07-18T15:31:42.280Z,0.80
2023-07-18T15:34:10.046Z,0.95
2023-07-18T15:36:36.606Z,0.80
2023-07-18T15:39:03.290Z,0.70
2023-07-18T15:41:29.921Z,0.77
2023-07-18T15:43:57.713Z,0.68
2023-07-18T15:46:24.811Z,0.70
2023-07-18T15:48:51.729Z,0.73
2023-07-18T15:51:18.295Z,0.55
2023-07-18T15:53:44.823Z,1.10
2023-07-18T15:56:15.547Z,1.00
2023-07-18T15:58:42.553Z,0.93
2023-07-18T16:01:09.330Z,1.35
2023-07-18T16:03:36.266Z,1.25
2023-07-18T16:06:03.742Z,1.10
2023-07-18T16:08:30.398Z,1.30
2023-07-18T16:10:57.021Z,1.00
2023-07-18T16:13:23.666Z,1.13
2023-07-18T16:15:50.262Z,1.02
2023-07-18T16:18:16.890Z,2.22
2023-07-18T16:20:49.497Z,1.33
2023-07-18T16:23:16.085Z,1.00
2023-07-18T16:25:43.729Z,1.10
2023-07-18T16:28:10.332Z,2.08
2023-07-18T16:30:36.829Z,2.97
2023-07-18T16:33:03.487Z,1.77
2023-07-18T16:35:30.635Z,0.80
2023-07-18T16:37:57.188Z,2.17
2023-07-18T16:40:23.832Z,2.55
2023-07-18T16:42:50.422Z,1.00
2023-07-18T16:45:17.054Z,1.00
2023-07-18T16:47:43.604Z,1.00
2023-07-18T16:50:10.508Z,0.70
2023-07-18T16:52:37.048Z,1.20
2023-07-18T16:55:03.693Z,0.90
2023-07-18T16:57:30.215Z,1.40
2023-07-18T16:59:56.766Z,1.00
2023-07-18T17:02:23.321Z,0.77
2023-07-18T17:04:49.988Z,0.85
2023-07-18T17:07:16.641Z,0.90
2023-07-18T17:09:43.220Z,0.98
2023-07-18T17:12:09.751Z,1.38
2023-07-18T17:14:36.272Z,0.75
2023-07-18T17:17:02.840Z,0.90
2023-07-18T17:19:29.460Z,0.77
2023-07-18T17:21:55.999Z,1.08
2023-07-18T17:24:22.608Z,1.27
2023-07-18T17:26:49.970Z,0.70
2023-07-18T17:29:18.767Z,0.80
2023-07-18T17:31:46.087Z,0.75
2023-07-18T17:34:12.704Z,0.50
2023-07-18T17:36:39.258Z,0.82
2023-07-18T17:39:05.846Z,0.75
2023-07-18T17:41:33.043Z,0.77
2023-07-18T17:44:00.055Z,1.02
2023-07-18T17:46:26.666Z,0.82
2023-07-18T17:48:53.252Z,0.82
2023-07-18T17:51:19.914Z,0.70
2023-07-18T17:53:46.603Z,0.52
2023-07-18T17:56:13.146Z,0.60
2023-07-18T17:58:39.718Z,0.60
2023-07-18T18:01:06.245Z,0.50
2023-07-18T18:03:33.162Z,0.80
2023-07-18T18:05:59.932Z,0.60
2023-07-18T18:08:26.452Z,0.47
2023-07-18T18:10:53.169Z,0.52
2023-07-18T18:13:19.741Z,1.05
2023-07-18T18:16:04.938Z,0.70
2023-07-18T18:18:32.869Z,0.43
2023-07-18T18:21:01.343Z,0.40
2023-07-18T18:23:38.707Z,0.55
2023-07-18T18:26:07.255Z,0.70
2023-07-18T18:28:34.139Z,0.50
2023-07-18T18:31:01.200Z,0.50
2023-07-18T18:33:28.155Z,0.60
2023-07-18T18:35:55.674Z,0.75
2023-07-18T18:38:22.355Z,0.35
2023-07-18T18:40:49.220Z,0.50
2023-07-18T18:43:15.837Z,0.50
2023-07-18T18:45:42.454Z,0.60
2023-07-18T18:48:11.002Z,0.90
2023-07-18T18:50:37.983Z,0.50
2023-07-18T18:53:04.509Z,0.43
2023-07-18T18:55:33.454Z,0.40
2023-07-18T18:58:00.817Z,0.60
2023-07-18T19:00:27.448Z,0.73
2023-07-18T19:02:54.414Z,0.50
2023-07-18T19:05:21.294Z,0.43
2023-07-18T19:07:47.998Z,0.40
2023-07-18T19:10:14.554Z,0.57
2023-07-18T19:12:41.431Z,0.40
2023-07-18T19:15:08.516Z,0.52
2023-07-18T19:17:35.202Z,0.45
2023-07-18T19:20:01.931Z,0.50
2023-07-18T19:22:28.719Z,0.50
2023-07-18T19:24:55.307Z,0.70
2023-07-18T19:27:21.909Z,0.50
2023-07-18T19:29:48.679Z,0.60
2023-07-18T19:32:15.243Z,0.80
2023-07-18T19:34:44.812Z,0.88
2023-07-18T19:37:11.430Z,0.40
2023-07-18T19:39:38.330Z,1.15
2023-07-18T19:42:05.765Z,0.60
2023-07-18T19:44:32.788Z,1.05
2023-07-18T19:46:59.573Z,0.60
2023-07-18T19:49:27.225Z,0.50
2023-07-18T19:51:54.709Z,0.40
2023-07-18T19:54:21.240Z,0.55
2023-07-18T19:56:47.916Z,0.50
2023-07-18T19:59:14.637Z,0.50
2023-07-18T20:01:41.384Z,0.50
2023-07-18T20:04:08.028Z,0.50
2023-07-18T20:06:34.655Z,0.77
2023-07-18T20:09:01.770Z,0.95
2023-07-18T20:11:28.554Z,0.60
2023-07-18T20:13:55.458Z,0.60
2023-07-18T20:16:22.444Z,1.20
2023-07-18T20:18:52.430Z,1.80
2023-07-18T20:21:22.471Z,0.80
2023-07-18T20:23:49.230Z,0.70
2023-07-18T20:26:15.966Z,0.60
2023-07-18T20:28:43.591Z,0.60
2023-07-18T20:31:10.265Z,0.73
2023-07-18T20:33:36.774Z,0.63
2023-07-18T20:36:03.387Z,0.80
2023-07-18T20:38:29.906Z,0.80
2023-07-18T20:40:58.825Z,0.82
2023-07-18T20:43:25.494Z,0.98
2023-07-18T20:46:00.208Z,0.82
2023-07-18T20:50:58.631Z,0.77
2023-07-18T20:53:26.272Z,0.90
2023-07-18T20:55:52.804Z,1.50
2023-07-18T20:58:19.536Z,0.93
2023-07-18T21:00:46.239Z,0.90
2023-07-18T21:03:13.119Z,0.85
2023-07-18T21:05:40.511Z,1.00
2023-07-18T21:08:07.375Z,0.88
2023-07-18T21:10:34.600Z,1.02
2023-07-18T21:13:02.921Z,0.98
2023-07-18T21:15:29.745Z,0.75
2023-07-18T21:17:56.536Z,0.90
2023-07-18T21:20:23.343Z,0.85
2023-07-18T21:22:50.061Z,0.90
2023-07-18T21:25:16.650Z,0.57
2023-07-18T21:27:44.545Z,1.25
2023-07-18T21:30:11.384Z,1.08
2023-07-18T21:32:38.175Z,1.30
2023-07-18T21:35:05.081Z,1.13
2023-07-18T21:37:31.609Z,1.05
2023-07-18T21:40:00.677Z,1.40
2023-07-18T21:42:27.177Z,1.15
2023-07-18T21:44:53.758Z,1.20
2023-07-18T21:47:20.410Z,1.25
2023-07-18T21:49:49.483Z,1.20
2023-07-18T21:52:16.210Z,1.75
2023-07-18T21:54:42.769Z,1.67
2023-07-18T21:57:09.310Z,1.50
2023-07-18T21:59:35.841Z,1.33
2023-07-18T22:02:02.456Z,1.20
2023-07-18T22:04:29.048Z,1.00
2023-07-18T22:06:55.579Z,0.93
2023-07-18T22:09:22.245Z,1.13
2023-07-18T22:11:48.895Z,1.55
2023-07-18T22:14:15.393Z,1.23
2023-07-18T22:16:41.881Z,1.05
2023-07-18T22:19:08.450Z,1.23
2023-07-18T22:21:34.962Z,1.23
2023-07-18T22:24:01.525Z,0.88
2023-07-18T22:26:28.022Z,0.90
2023-07-18T22:28:58.040Z,1.40
2023-07-18T22:31:24.860Z,1.05
2023-07-18T22:33:51.546Z,1.20
2023-07-18T22:36:18.025Z,1.05
2023-07-18T22:38:45.096Z,1.02
2023-07-18T22:41:11.599Z,1.00
2023-07-18T22:43:38.238Z,1.00
2023-07-18T22:46:05.004Z,1.13
2023-07-18T22:48:31.682Z,1.20
2023-07-18T22:50:58.846Z,1.23
2023-07-18T22:53:25.626Z,1.33
2023-07-18T22:55:52.298Z,0.98
2023-07-18T22:58:18.841Z,1.60
2023-07-18T23:00:45.387Z,1.17
2023-07-18T23:03:12.668Z,1.15
2023-07-18T23:05:39.323Z,1.20
2023-07-18T23:08:06.499Z,1.08
2023-07-18T23:10:33.236Z,1.20
2023-07-18T23:13:00.668Z,1.48
2023-07-18T23:15:27.288Z,1.50
2023-07-18T23:17:53.872Z,1.85
2023-07-18T23:20:20.473Z,1.73
2023-07-18T23:22:47.022Z,1.67
2023-07-18T23:25:13.681Z,1.85
2023-07-18T23:27:40.280Z,2.00
2023-07-18T23:30:07.516Z,1.73
2023-07-18T23:32:34.328Z,1.60
2023-07-18T23:35:00.908Z,1.63
2023-07-18T23:37:27.569Z,1.80
2023-07-18T23:39:54.222Z,1.88
2023-07-18T23:42:20.790Z,1.83
2023-07-18T23:44:47.298Z,2.53
2023-07-18T23:47:13.904Z,2.25
2023-07-18T23:49:40.423Z,2.05
2023-07-18T23:52:07.318Z,2.15
2023-07-18T23:54:33.881Z,2.20
2023-07-18T23:57:00.457Z,2.40
2023-07-18T23:59:27.022Z,2.10
